createdAt,value
2023-02-22T00:00:48.871Z,164.57
2023-02-22T00:03:18.254Z,161.63
2023-02-22T00:05:47.927Z,165.73
2023-02-22T00:08:18.346Z,176.07
2023-02-22T00:10:46.163Z,160.30
2023-02-22T00:13:15.631Z,169.03
2023-02-22T00:15:44.242Z,156.03
2023-02-22T00:18:15.132Z,157.03
2023-02-22T00:20:42.907Z,167.43
2023-02-22T00:23:15.048Z,166.93
2023-02-22T00:25:44.034Z,169.23
2023-02-22T00:28:11.628Z,173.57
2023-02-22T00:30:39.614Z,178.40
2023-02-22T00:33:07.265Z,159.17
2023-02-22T00:35:35.113Z,178.10
2023-02-22T00:38:04.069Z,175.43
2023-02-22T00:40:33.765Z,165.27
2023-02-22T00:43:06.117Z,173.23
2023-02-22T00:45:35.375Z,172.03
2023-02-22T00:48:04.356Z,175.17
2023-02-22T00:50:33.536Z,162.67
2023-02-22T00:53:03.721Z,171.87
2023-02-22T00:55:33.949Z,171.07
2023-02-22T00:58:02.544Z,161.03
2023-02-22T01:00:36.350Z,155.40
2023-02-22T01:03:05.101Z,165.73
2023-02-22T01:05:33.330Z,160.70
2023-02-22T01:08:03.248Z,150.87
2023-02-22T01:10:32.335Z,171.63
2023-02-22T01:13:01.687Z,157.67
2023-02-22T01:15:31.745Z,156.40
2023-02-22T01:18:00.831Z,160.67
2023-02-22T01:20:30.001Z,166.87
2023-02-22T01:22:59.817Z,163.13
2023-02-22T01:25:29.356Z,169.93
2023-02-22T01:27:58.362Z,176.53
2023-02-22T01:30:28.592Z,159.40
2023-02-22T01:32:58.482Z,171.30
2023-02-22T01:35:29.371Z,158.70
2023-02-22T01:37:58.017Z,159.27
2023-02-22T01:40:28.401Z,153.03
2023-02-22T01:42:58.870Z,162.30
2023-02-22T01:46:01.578Z,148.97
2023-02-22T01:48:35.162Z,155.40
2023-02-22T01:51:10.548Z,166.30
2023-02-22T01:53:42.569Z,147.27
2023-02-22T01:56:11.623Z,156.37
2023-02-22T01:58:44.839Z,160.37
2023-02-22T02:01:13.055Z,151.93
2023-02-22T02:03:42.903Z,155.10
2023-02-22T02:06:14.006Z,146.83
2023-02-22T02:08:51.525Z,152.00
2023-02-22T02:11:22.087Z,157.27
2023-02-22T02:13:52.410Z,150.37
2023-02-22T02:16:22.006Z,149.00
2023-02-22T02:18:51.485Z,156.37
2023-02-22T02:21:39.832Z,162.63
2023-02-22T02:24:44.848Z,152.63
2023-02-22T02:27:19.088Z,143.40
2023-02-22T02:30:13.719Z,137.03
2023-02-22T02:32:53.981Z,137.53
2023-02-22T02:35:32.742Z,142.00
2023-02-22T02:38:10.237Z,141.67
2023-02-22T02:40:43.481Z,148.63
2023-02-22T02:43:18.184Z,142.37
2023-02-22T02:45:50.649Z,146.40
2023-02-22T02:48:24.340Z,145.47
2023-02-22T02:50:52.959Z,150.40
2023-02-22T02:53:26.113Z,139.03
2023-02-22T02:55:54.090Z,138.17
2023-02-22T02:58:24.552Z,137.63
2023-02-22T03:00:57.443Z,139.93
2023-02-22T03:03:57.792Z,144.23
2023-02-22T03:06:55.645Z,150.47
2023-02-22T03:09:38.851Z,141.70
2023-02-22T03:12:18.566Z,140.87
2023-02-22T03:15:01.280Z,143.00
2023-02-22T03:17:41.410Z,145.93
2023-02-22T03:20:17.753Z,144.13
2023-02-22T03:22:53.199Z,155.10
2023-02-22T03:25:23.626Z,152.37
2023-02-22T03:27:56.505Z,158.70
2023-02-22T03:30:32.551Z,156.10
2023-02-22T03:33:08.947Z,142.00
2023-02-22T03:35:44.089Z,169.00
2023-02-22T03:38:16.834Z,160.40
2023-02-22T03:40:51.003Z,146.43
2023-02-22T03:43:24.862Z,152.83
2023-02-22T03:45:55.914Z,149.13
2023-02-22T03:48:32.006Z,149.43
2023-02-22T03:51:04.865Z,136.47
2023-02-22T03:53:37.011Z,138.43
2023-02-22T03:56:10.396Z,146.23
2023-02-22T03:58:40.586Z,138.67
2023-02-22T04:01:08.322Z,144.97
2023-02-22T04:03:35.977Z,141.13
2023-02-22T04:06:05.326Z,144.27
2023-02-22T04:08:33.078Z,140.00
2023-02-22T04:11:01.292Z,142.50
2023-02-22T04:13:29.526Z,133.87
2023-02-22T04:15:58.646Z,132.60
2023-02-22T04:18:26.410Z,132.40
2023-02-22T04:20:54.429Z,132.93
2023-02-22T04:23:32.481Z,136.50
2023-02-22T04:26:00.340Z,128.87
2023-02-22T04:28:27.935Z,125.83
2023-02-22T04:31:06.890Z,121.10
2023-02-22T04:33:34.602Z,121.77
2023-02-22T04:36:02.709Z,121.90
2023-02-22T04:38:35.005Z,116.33
2023-02-22T04:41:02.987Z,117.47
2023-02-22T04:43:30.717Z,128.10
2023-02-22T04:46:08.600Z,123.23
2023-02-22T04:48:36.329Z,123.53
2023-02-22T04:51:04.214Z,113.20
2023-02-22T04:53:33.089Z,129.00
2023-02-22T04:56:02.660Z,112.20
2023-02-22T04:58:31.679Z,105.10
2023-02-22T05:01:00.128Z,117.70
2023-02-22T05:03:28.246Z,118.30
2023-02-22T05:05:55.925Z,112.63
2023-02-22T05:08:23.553Z,120.90
2023-02-22T05:10:51.258Z,115.60
2023-02-22T05:13:20.241Z,109.23
2023-02-22T05:15:48.801Z,109.23
2023-02-22T05:18:16.832Z,111.17
2023-02-22T05:20:44.493Z,105.37
2023-02-22T05:23:12.192Z,116.17
2023-02-22T05:25:39.834Z,119.53
2023-02-22T05:28:13.572Z,109.43
2023-02-22T05:30:42.768Z,115.47
2023-02-22T05:33:11.409Z,118.63
2023-02-22T05:35:39.021Z,116.47
2023-02-22T05:38:07.505Z,118.53
2023-02-22T05:40:35.626Z,108.47
2023-02-22T05:43:03.381Z,109.97
2023-02-22T05:45:31.257Z,108.77
2023-02-22T05:48:00.520Z,114.03
2023-02-22T05:50:28.153Z,107.50
2023-02-22T05:52:56.327Z,120.90
2023-02-22T05:55:25.052Z,111.73
2023-02-22T05:57:53.999Z,109.17
2023-02-22T06:00:24.201Z,109.10
2023-02-22T06:02:55.827Z,117.30
2023-02-22T06:05:25.258Z,100.13
2023-02-22T06:07:53.837Z,109.43
2023-02-22T06:10:22.041Z,113.20
2023-02-22T06:12:50.906Z,114.97
2023-02-22T06:15:20.810Z,119.53
2023-02-22T06:17:49.096Z,107.87
2023-02-22T06:20:19.250Z,116.17
2023-02-22T06:22:49.651Z,106.40
2023-02-22T06:25:21.124Z,111.33
2023-02-22T06:27:49.005Z,112.47
2023-02-22T06:30:18.821Z,110.13
2023-02-22T06:32:46.776Z,116.33
2023-02-22T06:35:15.728Z,108.90
2023-02-22T06:37:43.665Z,118.53
2023-02-22T06:40:14.408Z,118.07
2023-02-22T06:42:42.615Z,120.57
2023-02-22T06:45:11.401Z,113.80
2023-02-22T06:47:40.990Z,121.70
2023-02-22T06:50:18.484Z,111.67
2023-02-22T06:52:47.860Z,108.73
2023-02-22T06:55:20.398Z,119.80
2023-02-22T06:57:48.256Z,111.13
2023-02-22T07:00:18.708Z,110.90
2023-02-22T07:02:48.336Z,112.40
2023-02-22T07:05:17.391Z,117.47
2023-02-22T07:07:45.959Z,126.13
2023-02-22T07:10:21.265Z,128.70
2023-02-22T07:12:49.714Z,125.80
2023-02-22T07:15:19.010Z,118.10
2023-02-22T07:17:46.784Z,125.50
2023-02-22T07:20:14.727Z,140.07
2023-02-22T07:22:42.508Z,139.20
2023-02-22T07:25:12.282Z,138.90
2023-02-22T07:27:43.323Z,130.23
2023-02-22T07:30:18.630Z,148.20
2023-02-22T07:32:47.306Z,140.27
2023-02-22T07:35:16.955Z,138.00
2023-02-22T07:37:45.046Z,143.47
2023-02-22T07:40:13.552Z,143.60
2023-02-22T07:42:57.488Z,149.70
2023-02-22T07:45:27.547Z,140.90
2023-02-22T07:47:55.688Z,144.30
2023-02-22T07:50:25.206Z,153.27
2023-02-22T07:52:54.948Z,158.23
2023-02-22T07:55:24.570Z,167.00
2023-02-22T07:57:55.886Z,157.17
2023-02-22T08:00:25.390Z,164.03
2023-02-22T08:02:53.561Z,169.97
2023-02-22T08:05:23.523Z,169.83
2023-02-22T08:07:52.065Z,189.97
2023-02-22T08:10:22.430Z,213.00
2023-02-22T08:12:50.299Z,184.40
2023-02-22T08:15:23.618Z,195.23
2023-02-22T08:17:51.509Z,208.03
2023-02-22T08:20:19.367Z,230.43
2023-02-22T08:22:47.681Z,224.27
2023-02-22T08:25:18.461Z,226.60
2023-02-22T08:27:46.343Z,225.07
2023-02-22T08:30:17.839Z,221.10
2023-02-22T08:32:47.864Z,218.73
2023-02-22T08:35:16.203Z,223.63
2023-02-22T08:37:44.848Z,221.47
2023-02-22T08:40:14.924Z,206.23
2023-02-22T08:42:42.953Z,226.03
2023-02-22T08:45:14.099Z,220.47
2023-02-22T08:47:42.598Z,211.63
2023-02-22T08:50:18.180Z,199.03
2023-02-22T08:52:46.095Z,221.57
2023-02-22T08:55:15.009Z,224.07
2023-02-22T08:57:42.823Z,234.03
2023-02-22T09:00:11.941Z,223.10
2023-02-22T09:02:39.822Z,230.77
2023-02-22T09:05:08.488Z,225.73
2023-02-22T09:07:37.635Z,232.50
2023-02-22T09:10:06.028Z,219.87
2023-02-22T09:12:33.885Z,218.57
2023-02-22T09:15:01.804Z,241.07
2023-02-22T09:17:30.322Z,236.70
2023-02-22T09:19:58.148Z,226.03
2023-02-22T09:22:25.910Z,213.43
2023-02-22T09:24:56.992Z,239.23
2023-02-22T09:27:28.213Z,236.53
2023-02-22T09:29:56.682Z,212.03
2023-02-22T09:32:24.857Z,236.07
2023-02-22T09:34:52.716Z,234.77
2023-02-22T09:37:20.966Z,232.47
2023-02-22T09:39:48.905Z,233.67
2023-02-22T09:42:27.609Z,221.17
2023-02-22T09:45:03.779Z,230.40
2023-02-22T09:47:39.916Z,246.10
2023-02-22T09:50:15.603Z,232.47
2023-02-22T09:52:55.052Z,253.07
2023-02-22T09:55:34.216Z,230.33
2023-02-22T09:58:08.374Z,225.38
2023-02-22T10:00:38.871Z,251.73
2023-02-22T10:03:22.643Z,231.70
2023-02-22T10:05:56.936Z,234.98
2023-02-22T10:08:31.172Z,244.68
2023-02-22T10:11:10.847Z,230.68
2023-02-22T10:13:51.615Z,250.25
2023-02-22T10:16:25.481Z,252.63
2023-02-22T10:19:11.046Z,267.15
2023-02-22T10:22:04.937Z,257.45
2023-02-22T10:24:43.259Z,266.67
2023-02-22T10:27:18.345Z,276.52
2023-02-22T10:29:53.074Z,297.33
2023-02-22T10:32:29.367Z,291.83
2023-02-22T10:34:59.252Z,288.08
2023-02-22T10:37:29.228Z,301.48
2023-02-22T10:40:06.107Z,284.58
2023-02-22T10:42:33.877Z,282.70
2023-02-22T10:45:03.126Z,302.23
2023-02-22T10:47:31.172Z,312.10
2023-02-22T10:50:01.668Z,306.65
2023-02-22T10:52:31.432Z,283.08
2023-02-22T10:55:14.240Z,289.75
2023-02-22T10:57:45.752Z,287.42
2023-02-22T11:00:26.606Z,282.75
2023-02-22T11:02:55.981Z,259.90
2023-02-22T11:05:36.649Z,260.20
2023-02-22T11:08:24.288Z,269.35
2023-02-22T11:10:54.155Z,252.38
2023-02-22T11:13:27.514Z,241.20
2023-02-22T11:15:59.385Z,234.30
2023-02-22T11:18:31.135Z,263.23
2023-02-22T11:21:06.069Z,247.00
2023-02-22T11:23:34.824Z,252.90
2023-02-22T11:26:07.357Z,245.77
2023-02-22T11:28:37.119Z,258.60
2023-02-22T11:31:19.681Z,244.82
2023-02-22T11:33:52.504Z,260.50
2023-02-22T11:36:37.834Z,273.40
2023-02-22T11:39:11.392Z,265.23
2023-02-22T11:41:39.497Z,273.58
2023-02-22T11:44:22.145Z,238.27
2023-02-22T11:46:55.604Z,262.27
2023-02-22T11:49:33.207Z,243.57
2023-02-22T11:52:18.477Z,234.80
2023-02-22T11:55:09.759Z,243.15
2023-02-22T11:57:51.203Z,246.40
2023-02-22T12:00:27.123Z,230.60
2023-02-22T12:03:28.697Z,236.52
2023-02-22T12:06:08.500Z,223.50
2023-02-22T12:08:51.305Z,215.98
2023-02-22T12:11:25.604Z,231.38
2023-02-22T12:14:12.282Z,224.75
2023-02-22T12:16:59.242Z,217.32
2023-02-22T12:19:36.146Z,214.23
2023-02-22T12:22:08.863Z,212.85
2023-02-22T12:24:39.650Z,198.05
2023-02-22T12:27:12.502Z,197.80
2023-02-22T12:29:45.102Z,206.13
2023-02-22T12:32:17.131Z,192.65
2023-02-22T12:34:49.398Z,184.90
2023-02-22T12:37:21.412Z,186.30
2023-02-22T12:39:59.048Z,182.38
2023-02-22T12:42:34.444Z,176.48
2023-02-22T12:45:10.416Z,171.60
2023-02-22T12:47:46.758Z,166.80
2023-02-22T12:50:22.370Z,169.73
2023-02-22T12:52:58.740Z,178.65
2023-02-22T12:55:32.155Z,174.68
2023-02-22T12:58:08.459Z,182.18
2023-02-22T13:00:45.727Z,183.02
2023-02-22T13:03:30.162Z,164.80
2023-02-22T13:06:15.398Z,155.25
2023-02-22T13:08:54.209Z,178.23
2023-02-22T13:11:29.301Z,170.38
2023-02-22T13:14:10.441Z,166.57
2023-02-22T13:16:46.005Z,179.57
2023-02-22T13:19:22.850Z,161.57
2023-02-22T13:21:58.726Z,159.25
2023-02-22T13:24:33.826Z,161.50
2023-02-22T13:27:05.029Z,171.40
2023-02-22T13:29:38.070Z,181.55
2023-02-22T13:32:20.267Z,185.25
2023-02-22T13:35:14.042Z,184.80
2023-02-22T13:38:10.593Z,169.68
2023-02-22T13:40:57.489Z,161.82
2023-02-22T13:43:51.255Z,175.15
2023-02-22T13:46:36.710Z,170.52
2023-02-22T13:49:29.099Z,171.15
2023-02-22T13:52:01.853Z,170.88
2023-02-22T13:54:42.041Z,169.80
2023-02-22T13:57:21.222Z,166.75
2023-02-22T13:59:49.309Z,159.77
2023-02-22T14:02:36.675Z,167.68
2023-02-22T14:05:45.529Z,164.35
2023-02-22T14:08:45.689Z,160.55
2023-02-22T14:11:54.171Z,152.00
2023-02-22T14:14:24.785Z,162.70
2023-02-22T14:17:32.365Z,164.38
2023-02-22T14:20:20.652Z,155.30
2023-02-22T14:22:52.426Z,164.20
2023-02-22T14:25:37.237Z,181.85
2023-02-22T14:28:07.099Z,180.13
2023-02-22T14:30:40.150Z,174.90
2023-02-22T14:33:54.751Z,182.57
2023-02-22T14:36:25.076Z,163.88
2023-02-22T14:38:54.979Z,173.27
2023-02-22T14:41:26.581Z,164.65
2023-02-22T14:43:56.302Z,181.00
2023-02-22T14:46:30.192Z,178.85
2023-02-22T14:49:01.042Z,189.60
2023-02-22T14:51:32.673Z,177.25
2023-02-22T14:54:07.202Z,172.20
2023-02-22T14:56:44.115Z,176.27
2023-02-22T14:59:17.827Z,174.25
2023-02-22T15:02:01.586Z,173.82
2023-02-22T15:04:33.957Z,184.43
2023-02-22T15:07:08.997Z,175.20
2023-02-22T15:09:37.481Z,174.23
2023-02-22T15:12:14.519Z,179.30
2023-02-22T15:14:44.691Z,178.38
2023-02-22T15:17:19.158Z,170.30
2023-02-22T15:19:49.678Z,175.88
2023-02-22T15:22:23.262Z,186.68
2023-02-22T15:24:59.950Z,178.25
2023-02-22T15:27:28.648Z,182.32
2023-02-22T15:30:04.356Z,176.90
2023-02-22T15:32:36.967Z,172.88
2023-02-22T15:35:16.568Z,165.65
2023-02-22T15:37:45.518Z,171.30
2023-02-22T15:40:16.187Z,167.93
2023-02-22T15:42:47.332Z,175.30
2023-02-22T15:45:21.469Z,167.77
2023-02-22T15:47:51.174Z,167.48
2023-02-22T15:50:23.797Z,184.00
2023-02-22T15:52:58.036Z,178.45
2023-02-22T15:55:29.488Z,181.48
2023-02-22T15:58:01.611Z,176.60
2023-02-22T16:00:36.254Z,172.48
2023-02-22T16:03:07.189Z,176.93
2023-02-22T16:05:40.426Z,169.63
2023-02-22T16:08:17.940Z,171.60
2023-02-22T16:10:54.433Z,181.30
2023-02-22T16:13:32.876Z,173.50
2023-02-22T16:16:02.777Z,172.85
2023-02-22T16:18:34.439Z,170.68
2023-02-22T16:21:06.216Z,172.90
2023-02-22T16:23:45.753Z,171.45
2023-02-22T16:26:23.348Z,166.68
2023-02-22T16:28:53.598Z,164.27
2023-02-22T16:31:22.969Z,177.60
2023-02-22T16:33:53.107Z,182.30
2023-02-22T16:36:24.185Z,193.88
2023-02-22T16:38:52.508Z,202.73
2023-02-22T16:41:20.868Z,183.75
2023-02-22T16:43:51.185Z,192.55
2023-02-22T16:46:20.363Z,193.10
2023-02-22T16:48:48.453Z,207.48
2023-02-22T16:51:23.912Z,204.75
2023-02-22T16:53:53.975Z,202.27
2023-02-22T16:56:30.536Z,210.77
2023-02-22T16:59:02.180Z,202.55
2023-02-22T17:01:30.071Z,211.90
2023-02-22T17:03:57.886Z,197.63
2023-02-22T17:06:29.087Z,213.32
2023-02-22T17:08:56.896Z,215.40
2023-02-22T17:11:24.825Z,225.07
2023-02-22T17:13:52.597Z,235.48
2023-02-22T17:16:20.779Z,237.18
2023-02-22T17:18:49.898Z,233.25
2023-02-22T17:21:17.747Z,237.98
2023-02-22T17:23:47.810Z,235.13
2023-02-22T17:26:16.816Z,235.05
2023-02-22T17:28:45.085Z,241.07
2023-02-22T17:31:21.717Z,227.40
2023-02-22T17:33:51.226Z,238.45
2023-02-22T17:36:20.735Z,234.52
2023-02-22T17:38:50.116Z,231.60
2023-02-22T17:41:17.976Z,234.43
2023-02-22T17:43:45.835Z,230.25
2023-02-22T17:46:13.753Z,239.88
2023-02-22T17:48:41.571Z,240.90
2023-02-22T17:51:11.589Z,231.90
2023-02-22T17:53:40.068Z,248.20
2023-02-22T17:56:12.305Z,241.95
2023-02-22T17:58:41.009Z,235.32
2023-02-22T18:01:21.011Z,232.88
2023-02-22T18:03:49.459Z,238.63
2023-02-22T18:06:22.564Z,242.18
2023-02-22T18:08:55.966Z,230.45
2023-02-22T18:11:27.184Z,248.57
2023-02-22T18:13:55.934Z,227.13
2023-02-22T18:16:25.458Z,259.75
2023-02-22T18:18:53.723Z,247.10
2023-02-22T18:21:21.594Z,238.57
2023-02-22T18:23:49.844Z,238.73
2023-02-22T18:26:19.859Z,241.73
2023-02-22T18:28:49.772Z,236.10
2023-02-22T18:31:19.658Z,237.13
2023-02-22T18:33:49.651Z,231.52
2023-02-22T18:36:22.593Z,232.73
2023-02-22T18:38:52.385Z,229.95
2023-02-22T18:41:25.101Z,245.77
2023-02-22T18:43:57.749Z,237.35
2023-02-22T18:46:27.773Z,234.82
2023-02-22T18:48:56.915Z,245.15
2023-02-22T18:51:25.956Z,228.70
2023-02-22T18:53:57.562Z,244.15
2023-02-22T18:56:29.816Z,253.13
2023-02-22T18:59:01.323Z,264.02
2023-02-22T19:01:30.194Z,268.50
2023-02-22T19:03:58.125Z,276.10
2023-02-22T19:06:26.016Z,269.77
2023-02-22T19:08:53.942Z,258.83
2023-02-22T19:11:23.718Z,231.68
2023-02-22T19:13:54.532Z,250.50
2023-02-22T19:16:25.843Z,249.65
2023-02-22T19:18:57.077Z,241.32
2023-02-22T19:21:26.477Z,240.02
2023-02-22T19:24:01.169Z,237.50
2023-02-22T19:26:29.685Z,258.35
2023-02-22T19:28:59.629Z,230.43
2023-02-22T19:31:31.957Z,262.75
2023-02-22T19:34:02.071Z,249.80
2023-02-22T19:36:30.138Z,263.75
2023-02-22T19:39:01.572Z,272.13
2023-02-22T19:41:30.685Z,276.95
2023-02-22T19:43:59.196Z,270.52
2023-02-22T19:46:28.409Z,271.33
2023-02-22T19:48:56.592Z,277.98
2023-02-22T19:51:27.739Z,292.55
2023-02-22T19:53:57.926Z,286.48
2023-02-22T19:56:27.092Z,289.92
2023-02-22T19:58:56.356Z,281.80
2023-02-22T20:01:26.543Z,296.95
2023-02-22T20:03:59.746Z,289.23
2023-02-22T20:06:34.468Z,280.40
2023-02-22T20:09:03.477Z,291.05
2023-02-22T20:11:31.595Z,277.17
2023-02-22T20:14:00.851Z,287.15
2023-02-22T20:16:29.239Z,296.65
2023-02-22T20:18:58.310Z,283.58
2023-02-22T20:21:30.680Z,273.63
2023-02-22T20:23:59.241Z,291.58
2023-02-22T20:26:29.197Z,290.38
2023-02-22T20:28:57.561Z,275.17
2023-02-22T20:31:25.978Z,297.50
2023-02-22T20:33:55.521Z,274.73
2023-02-22T20:36:25.825Z,278.85
2023-02-22T20:38:55.233Z,280.55
2023-02-22T20:41:25.863Z,289.73
2023-02-22T20:43:55.080Z,293.50
2023-02-22T20:46:23.592Z,274.10
2023-02-22T20:48:55.019Z,275.17
2023-02-22T20:51:24.679Z,264.33
2023-02-22T20:53:52.653Z,262.77
2023-02-22T20:56:22.804Z,280.33
2023-02-22T20:58:50.983Z,278.17
2023-02-22T21:01:22.463Z,267.00
2023-02-22T21:03:51.172Z,276.97
2023-02-22T21:06:21.399Z,273.27
2023-02-22T21:08:54.479Z,258.23
2023-02-22T21:11:24.234Z,255.63
2023-02-22T21:13:52.390Z,256.60
2023-02-22T21:16:22.382Z,263.40
2023-02-22T21:18:51.102Z,260.07
2023-02-22T21:21:18.972Z,263.30
2023-02-22T21:23:51.483Z,264.30
2023-02-22T21:26:23.327Z,260.17
2023-02-22T21:28:51.818Z,276.27
2023-02-22T21:31:21.694Z,269.73
2023-02-22T21:33:50.933Z,257.30
2023-02-22T21:36:19.719Z,271.52
2023-02-22T21:38:51.069Z,265.73
2023-02-22T21:41:20.977Z,261.15
2023-02-22T21:43:50.601Z,272.42
2023-02-22T21:46:18.670Z,269.00
2023-02-22T21:48:48.713Z,263.52
2023-02-22T21:51:19.507Z,271.13
2023-02-22T21:53:49.049Z,273.58
2023-02-22T21:56:19.362Z,277.70
2023-02-22T21:58:50.167Z,279.88
2023-02-22T22:01:18.361Z,278.13
2023-02-22T22:03:46.918Z,276.90
2023-02-22T22:06:15.281Z,274.67
2023-02-22T22:08:46.021Z,293.02
2023-02-22T22:11:17.825Z,282.70
2023-02-22T22:13:45.987Z,290.30
2023-02-22T22:16:16.888Z,296.30
2023-02-22T22:18:45.942Z,300.08
2023-02-22T22:21:17.444Z,264.73
2023-02-22T22:23:47.426Z,269.95
2023-02-22T22:26:17.057Z,282.48
2023-02-22T22:28:46.699Z,291.85
2023-02-22T22:31:18.034Z,287.42
2023-02-22T22:33:47.201Z,289.63
2023-02-22T22:36:17.363Z,293.08
2023-02-22T22:38:47.243Z,291.75
2023-02-22T22:41:17.546Z,283.40
2023-02-22T22:43:46.865Z,284.58
2023-02-22T22:46:18.414Z,297.80
2023-02-22T22:48:47.527Z,279.95
2023-02-22T22:51:18.032Z,284.25
2023-02-22T22:53:47.926Z,298.40
2023-02-22T22:56:17.529Z,295.58
2023-02-22T22:58:48.838Z,287.75
2023-02-22T23:01:26.673Z,304.38
2023-02-22T23:03:56.446Z,288.40
2023-02-22T23:06:27.890Z,282.42
2023-02-22T23:08:59.931Z,308.45
2023-02-22T23:11:33.562Z,297.30
2023-02-22T23:14:04.810Z,281.45
2023-02-22T23:16:34.394Z,295.17
2023-02-22T23:19:02.071Z,287.27
2023-02-22T23:21:29.747Z,292.35
2023-02-22T23:23:58.611Z,306.83
2023-02-22T23:26:27.430Z,297.02
2023-02-22T23:28:59.085Z,267.13
2023-02-22T23:31:29.356Z,290.35
2023-02-22T23:33:59.976Z,279.35
2023-02-22T23:36:28.228Z,290.63
2023-02-22T23:38:56.296Z,270.20
2023-02-22T23:41:25.190Z,281.40
2023-02-22T23:43:53.802Z,268.15
2023-02-22T23:46:21.631Z,275.05
2023-02-22T23:49:01.488Z,263.67
2023-02-22T23:51:38.998Z,277.65
2023-02-22T23:54:08.093Z,297.38
2023-02-22T23:56:36.962Z,280.15
2023-02-22T23:59:10.699Z,322.17
